• vieta
  • image
  • image
  • image

Šiandien

Ketvirtadienis, 23 Spalis 2014

Orų prognozė

Šiauliai -4 °C
   

Orų prognozė aviacijai

[source: ADDS]
METAR
EYSA 230050Z AUTO 07010KT 9999NDV NCD M04/M05 Q1023 =
TAF
TAF EYSA 222300Z 2300/2309 08012G22KT 8000 NSC =
SR / SS: 05:14 / 15:10 UTC (EYSA 2014-10-23)

Lankytojai

Mes turime 4 svečius online

tic logo lt